createdAt,value
2018-12-29T00:01:39.781Z,48.63
2018-12-29T00:04:09.571Z,51.80
2018-12-29T00:06:39.263Z,51.13
2018-12-29T00:09:09.014Z,52.10
2018-12-29T00:11:38.665Z,45.30
2018-12-29T00:14:08.440Z,51.83
2018-12-29T00:16:38.115Z,51.40
2018-12-29T00:19:07.893Z,43.57
2018-12-29T00:21:37.532Z,51.10
2018-12-29T00:24:07.905Z,56.43
2018-12-29T00:26:37.550Z,52.77
2018-12-29T00:29:07.279Z,40.53
2018-12-29T00:31:36.959Z,47.43
2018-12-29T00:34:06.582Z,43.60
2018-12-29T00:36:36.317Z,42.13
2018-12-29T00:39:06.833Z,41.03
2018-12-29T00:41:36.502Z,34.63
2018-12-29T00:44:06.128Z,34.53
2018-12-29T00:46:35.778Z,37.10
2018-12-29T00:49:05.418Z,35.23
2018-12-29T00:51:35.083Z,34.67
2018-12-29T00:54:04.723Z,33.90
2018-12-29T00:56:34.376Z,32.67
2018-12-29T00:59:04.042Z,34.50
2018-12-29T01:01:33.754Z,33.17
2018-12-29T01:04:03.390Z,33.40
2018-12-29T01:06:33.094Z,37.40
2018-12-29T01:09:02.820Z,33.67
2018-12-29T01:11:32.498Z,39.80
2018-12-29T01:14:02.129Z,37.87
2018-12-29T01:16:31.801Z,42.60
2018-12-29T01:19:01.435Z,42.40
2018-12-29T01:21:31.084Z,38.97
2018-12-29T01:24:00.746Z,39.50
2018-12-29T01:26:30.402Z,39.00
2018-12-29T01:29:00.063Z,46.37
2018-12-29T01:31:29.727Z,46.53
2018-12-29T01:33:59.384Z,44.67
2018-12-29T01:36:29.067Z,38.80
2018-12-29T01:38:58.738Z,42.20
2018-12-29T01:41:28.411Z,42.90
2018-12-29T01:43:58.063Z,35.67
2018-12-29T01:46:27.710Z,41.00
2018-12-29T01:48:57.339Z,34.60
2018-12-29T01:51:26.992Z,37.83
2018-12-29T01:53:56.650Z,37.57
2018-12-29T01:56:26.303Z,41.40
2018-12-29T01:58:55.930Z,40.20
2018-12-29T02:01:25.595Z,34.07
2018-12-29T02:03:55.239Z,36.23
2018-12-29T02:06:24.910Z,36.90
2018-12-29T02:08:54.543Z,40.50
2018-12-29T02:11:24.211Z,35.80
2018-12-29T02:13:53.857Z,34.60
2018-12-29T02:16:23.527Z,35.33
2018-12-29T02:18:53.154Z,32.73
2018-12-29T02:21:22.818Z,33.20
2018-12-29T02:23:52.431Z,34.07
2018-12-29T02:26:22.105Z,34.40
2018-12-29T02:28:51.689Z,32.87
2018-12-29T02:31:21.349Z,36.30
2018-12-29T02:33:51.000Z,38.20
2018-12-29T02:36:20.748Z,31.17
2018-12-29T02:38:50.377Z,37.30
2018-12-29T02:41:20.091Z,37.87
2018-12-29T02:43:49.762Z,34.27
2018-12-29T02:46:19.398Z,32.30
2018-12-29T02:48:49.022Z,40.63
2018-12-29T02:51:18.703Z,38.13
2018-12-29T02:53:48.362Z,37.33
2018-12-29T02:56:18.026Z,31.40
2018-12-29T02:58:47.690Z,38.73
2018-12-29T03:01:17.354Z,35.33
2018-12-29T03:03:47.842Z,37.70
2018-12-29T03:06:17.490Z,32.77
2018-12-29T03:08:47.126Z,32.87
2018-12-29T03:11:16.754Z,35.57
2018-12-29T03:13:46.414Z,33.97
2018-12-29T03:16:16.062Z,28.10
2018-12-29T03:18:45.700Z,32.10
2018-12-29T03:21:16.169Z,32.57
2018-12-29T03:23:45.952Z,29.10
2018-12-29T03:26:15.584Z,29.70
2018-12-29T03:28:45.259Z,29.93
2018-12-29T03:31:14.892Z,28.83
2018-12-29T03:33:44.675Z,27.37
2018-12-29T03:36:14.311Z,29.77
2018-12-29T03:38:43.955Z,31.47
2018-12-29T03:41:13.593Z,26.27
2018-12-29T03:43:43.256Z,25.67
2018-12-29T03:46:12.902Z,29.37
2018-12-29T03:48:42.554Z,26.77
2018-12-29T03:51:12.398Z,23.73
2018-12-29T03:53:42.070Z,27.77
2018-12-29T03:56:11.720Z,28.20
2018-12-29T03:58:41.397Z,33.43
2018-12-29T04:01:11.048Z,25.90
2018-12-29T04:03:40.716Z,23.60
2018-12-29T04:06:10.370Z,26.17
2018-12-29T04:08:40.022Z,28.27
2018-12-29T04:11:09.670Z,24.23
2018-12-29T04:13:39.905Z,25.67
2018-12-29T04:16:09.582Z,24.40
2018-12-29T04:18:39.243Z,26.60
2018-12-29T04:21:08.899Z,24.10
2018-12-29T04:23:38.553Z,23.43
2018-12-29T04:26:08.179Z,26.23
2018-12-29T04:28:37.959Z,28.00
2018-12-29T04:31:07.575Z,29.00
2018-12-29T04:33:37.271Z,30.53
2018-12-29T04:36:06.926Z,30.80
2018-12-29T04:38:36.590Z,27.17
2018-12-29T04:41:09.346Z,26.90
2018-12-29T04:43:38.992Z,27.60
2018-12-29T04:46:08.628Z,29.33
2018-12-29T04:48:38.303Z,27.27
2018-12-29T04:51:07.922Z,24.83
2018-12-29T04:53:37.611Z,24.83
2018-12-29T04:56:07.282Z,26.50
2018-12-29T04:58:36.990Z,26.37
2018-12-29T05:01:06.687Z,24.67
2018-12-29T05:03:36.346Z,24.73
2018-12-29T05:06:05.991Z,23.63
2018-12-29T05:08:35.675Z,25.97
2018-12-29T05:11:05.299Z,23.53
2018-12-29T05:13:36.327Z,28.33
2018-12-29T05:16:12.640Z,24.57
2018-12-29T05:18:37.312Z,25.00
2018-12-29T05:21:07.087Z,27.63
2018-12-29T05:23:36.805Z,25.63
2018-12-29T05:26:06.451Z,28.27
2018-12-29T05:28:36.419Z,26.07
2018-12-29T05:31:06.061Z,22.17
2018-12-29T05:33:35.730Z,24.50
2018-12-29T05:36:05.392Z,26.27
2018-12-29T05:38:35.041Z,25.87
2018-12-29T05:41:04.711Z,25.70
2018-12-29T05:43:34.334Z,25.20
2018-12-29T05:46:04.009Z,25.43
2018-12-29T05:48:33.661Z,25.03
2018-12-29T05:51:03.347Z,27.53
2018-12-29T05:53:32.978Z,28.30
2018-12-29T05:56:05.490Z,25.80
2018-12-29T05:58:35.154Z,25.17
2018-12-29T06:01:04.795Z,27.73
2018-12-29T06:03:34.460Z,25.70
2018-12-29T06:06:04.123Z,25.60
2018-12-29T06:08:33.757Z,24.57
2018-12-29T06:11:03.500Z,26.53
2018-12-29T06:13:33.179Z,26.50
2018-12-29T06:16:02.857Z,29.70
2018-12-29T06:18:32.495Z,27.47
2018-12-29T06:21:02.156Z,25.93
2018-12-29T06:23:31.777Z,25.10
2018-12-29T06:26:01.436Z,25.63
2018-12-29T06:28:31.223Z,23.93
2018-12-29T06:31:00.865Z,25.63
2018-12-29T06:33:30.506Z,27.83
2018-12-29T06:36:00.140Z,24.37
2018-12-29T06:38:29.807Z,27.70
2018-12-29T06:40:59.460Z,30.03
2018-12-29T06:43:29.125Z,29.23
2018-12-29T06:45:58.774Z,25.37
2018-12-29T06:48:28.426Z,27.87
2018-12-29T06:50:58.056Z,28.33
2018-12-29T06:53:27.704Z,27.83
2018-12-29T06:55:57.358Z,29.93
2018-12-29T06:58:26.998Z,29.07
2018-12-29T07:00:56.658Z,28.47
2018-12-29T07:03:26.323Z,25.87
2018-12-29T07:05:55.954Z,24.50
2018-12-29T07:08:25.606Z,28.10
2018-12-29T07:10:55.236Z,28.03
2018-12-29T07:13:24.885Z,27.17
2018-12-29T07:15:54.539Z,29.40
2018-12-29T07:18:24.195Z,25.53
2018-12-29T07:20:53.826Z,25.73
2018-12-29T07:23:23.473Z,28.40
2018-12-29T07:25:53.129Z,25.77
2018-12-29T07:28:22.858Z,27.17
2018-12-29T07:30:52.529Z,30.13
2018-12-29T07:33:22.294Z,26.47
2018-12-29T07:35:51.954Z,27.03
2018-12-29T07:38:21.600Z,29.70
2018-12-29T07:40:51.251Z,27.77
2018-12-29T07:43:20.923Z,27.57
2018-12-29T07:45:50.554Z,29.17
2018-12-29T07:48:20.199Z,29.20
2018-12-29T07:50:49.871Z,28.17
2018-12-29T07:53:19.541Z,32.40
2018-12-29T07:55:49.190Z,27.93
2018-12-29T07:58:18.941Z,25.63
2018-12-29T08:00:48.589Z,27.23
2018-12-29T08:03:18.354Z,26.50
2018-12-29T08:05:48.103Z,27.73
2018-12-29T08:08:18.047Z,26.17
2018-12-29T08:10:47.700Z,24.77
2018-12-29T08:13:17.341Z,29.17
2018-12-29T08:15:46.993Z,25.23
2018-12-29T08:18:16.648Z,29.43
2018-12-29T08:20:46.295Z,26.60
2018-12-29T08:23:15.961Z,28.63
2018-12-29T08:25:45.615Z,30.50
2018-12-29T08:28:15.266Z,27.90
2018-12-29T08:30:44.930Z,28.83
2018-12-29T08:33:14.590Z,31.43
2018-12-29T08:35:44.277Z,27.43
2018-12-29T08:38:13.975Z,27.10
2018-12-29T08:40:43.654Z,27.20
2018-12-29T08:43:13.402Z,29.73
2018-12-29T08:45:43.058Z,27.97
2018-12-29T08:48:12.737Z,26.33
2018-12-29T08:50:42.401Z,25.03
2018-12-29T08:53:15.068Z,26.43
2018-12-29T08:55:44.745Z,26.93
2018-12-29T08:58:14.460Z,27.30
2018-12-29T09:00:44.129Z,26.00
2018-12-29T09:03:13.774Z,28.10
2018-12-29T09:05:43.437Z,31.30
2018-12-29T09:08:13.244Z,31.90
2018-12-29T09:10:42.886Z,31.63
2018-12-29T09:13:12.640Z,32.30
2018-12-29T09:15:42.323Z,31.37
2018-12-29T09:18:11.971Z,30.43
2018-12-29T09:20:41.658Z,31.10
2018-12-29T09:23:11.292Z,31.30
2018-12-29T09:25:40.963Z,30.10
2018-12-29T09:28:10.640Z,33.90
2018-12-29T09:30:40.410Z,30.20
2018-12-29T09:33:10.063Z,27.20
2018-12-29T09:35:39.721Z,28.50
2018-12-29T09:38:09.366Z,28.50
2018-12-29T09:40:39.043Z,29.43
2018-12-29T09:43:08.689Z,31.40
2018-12-29T09:45:38.332Z,33.17
2018-12-29T09:48:07.983Z,29.67
2018-12-29T09:50:37.667Z,32.43
2018-12-29T09:53:07.302Z,34.77
2018-12-29T09:55:36.973Z,30.50
2018-12-29T09:58:06.629Z,33.87
2018-12-29T10:00:36.336Z,29.87
2018-12-29T10:03:05.980Z,28.57
2018-12-29T10:05:35.663Z,34.37
2018-12-29T10:08:05.410Z,32.30
2018-12-29T10:10:36.570Z,29.03
2018-12-29T10:13:06.313Z,27.00
2018-12-29T10:15:35.965Z,32.27
2018-12-29T10:18:05.624Z,30.60
2018-12-29T10:20:35.325Z,29.60
2018-12-29T10:23:04.964Z,27.97
2018-12-29T10:25:34.717Z,29.67
2018-12-29T10:28:04.393Z,31.27
2018-12-29T10:30:34.189Z,28.13
2018-12-29T10:33:03.839Z,28.43
2018-12-29T10:35:33.513Z,25.63
2018-12-29T10:38:03.205Z,36.50
2018-12-29T10:40:32.852Z,34.30
2018-12-29T10:43:02.515Z,33.40
2018-12-29T10:45:32.228Z,32.23
2018-12-29T10:48:01.893Z,31.43
2018-12-29T10:50:31.627Z,27.33
2018-12-29T10:53:01.262Z,29.13
2018-12-29T10:55:31.043Z,33.40
2018-12-29T10:58:00.741Z,44.63
2018-12-29T11:00:34.974Z,29.57
2018-12-29T11:03:01.857Z,38.17
2018-12-29T11:05:31.598Z,30.83
2018-12-29T11:08:01.292Z,29.33
2018-12-29T11:10:33.965Z,33.17
2018-12-29T11:13:03.692Z,38.07
2018-12-29T11:15:33.394Z,36.40
2018-12-29T11:18:03.178Z,43.23
2018-12-29T11:20:33.063Z,36.87
2018-12-29T11:23:02.709Z,35.97
2018-12-29T11:25:32.451Z,33.90
2018-12-29T11:28:02.136Z,31.97
2018-12-29T11:30:31.852Z,30.20
2018-12-29T11:33:01.595Z,27.27
2018-12-29T11:35:31.255Z,29.47
2018-12-29T11:38:01.306Z,28.43
2018-12-29T11:40:31.003Z,28.33
2018-12-29T11:43:01.176Z,29.93
2018-12-29T11:45:30.805Z,27.07
2018-12-29T11:48:00.579Z,35.33
2018-12-29T11:50:30.243Z,32.00
2018-12-29T11:52:59.978Z,31.73
2018-12-29T11:55:29.780Z,29.53
2018-12-29T11:57:59.944Z,33.73
2018-12-29T12:00:31.898Z,29.13
2018-12-29T12:03:01.641Z,31.33
2018-12-29T12:05:31.386Z,37.83
2018-12-29T12:08:01.814Z,29.97
2018-12-29T12:10:31.527Z,33.43
2018-12-29T12:13:01.329Z,34.13
2018-12-29T12:15:31.033Z,30.40
2018-12-29T12:18:01.166Z,33.83
2018-12-29T12:20:31.286Z,29.33
2018-12-29T12:23:01.165Z,29.13
2018-12-29T12:25:30.914Z,36.07
2018-12-29T12:28:01.113Z,33.13
2018-12-29T12:30:31.045Z,30.87
2018-12-29T12:33:01.171Z,34.03
2018-12-29T12:35:30.849Z,28.03
2018-12-29T12:38:00.573Z,31.07
2018-12-29T12:40:30.378Z,35.10
2018-12-29T12:43:00.099Z,32.00
2018-12-29T12:45:29.904Z,31.13
2018-12-29T12:48:05.053Z,33.70
2018-12-29T12:50:31.086Z,32.97
2018-12-29T12:53:01.226Z,33.20
2018-12-29T12:55:30.886Z,31.40
2018-12-29T12:58:01.215Z,33.53
2018-12-29T13:00:31.324Z,35.20
2018-12-29T13:03:01.372Z,34.33
2018-12-29T13:05:31.051Z,29.10
2018-12-29T13:08:01.145Z,32.07
2018-12-29T13:10:30.879Z,34.23
2018-12-29T13:13:00.723Z,37.93
2018-12-29T13:15:30.409Z,30.00
2018-12-29T13:18:00.128Z,32.23
2018-12-29T13:20:30.129Z,31.23
2018-12-29T13:22:59.864Z,30.97
2018-12-29T13:25:29.567Z,34.87
2018-12-29T13:27:59.282Z,29.60
2018-12-29T13:30:28.971Z,33.83
2018-12-29T13:32:58.912Z,35.67
2018-12-29T13:35:28.611Z,33.33
2018-12-29T13:37:58.586Z,34.10
2018-12-29T13:40:28.320Z,35.00
2018-12-29T13:42:58.366Z,33.50
2018-12-29T13:45:27.996Z,33.27
2018-12-29T13:47:57.745Z,36.27
2018-12-29T13:50:27.498Z,38.43
2018-12-29T13:52:57.287Z,37.93
2018-12-29T13:55:26.963Z,40.30
2018-12-29T13:57:56.734Z,43.03
2018-12-29T14:00:26.532Z,40.20
2018-12-29T14:02:56.399Z,43.03
2018-12-29T14:05:26.472Z,42.90
2018-12-29T14:07:56.299Z,43.37
2018-12-29T14:10:26.155Z,38.40
2018-12-29T14:12:55.922Z,37.83
2018-12-29T14:15:26.488Z,39.10
2018-12-29T14:17:56.327Z,36.93
2018-12-29T14:20:26.090Z,39.57
2018-12-29T14:22:55.913Z,36.53
2018-12-29T14:25:25.666Z,37.30
2018-12-29T14:27:55.638Z,35.13
2018-12-29T14:30:25.478Z,36.27
2018-12-29T14:32:55.291Z,40.57
2018-12-29T14:35:24.953Z,36.93
2018-12-29T14:37:54.714Z,44.60
2018-12-29T14:40:24.421Z,36.37
2018-12-29T14:42:54.251Z,51.17
2018-12-29T14:45:24.063Z,44.27
2018-12-29T14:47:53.758Z,38.40
2018-12-29T14:50:23.699Z,43.20
2018-12-29T14:52:53.465Z,35.63
2018-12-29T14:55:23.141Z,37.23
2018-12-29T14:57:52.918Z,31.17
2018-12-29T15:00:22.688Z,37.53
2018-12-29T15:02:52.356Z,36.30
2018-12-29T15:05:22.090Z,33.83
2018-12-29T15:07:52.010Z,35.23
2018-12-29T15:10:21.851Z,33.77
2018-12-29T15:12:51.513Z,36.17
2018-12-29T15:15:21.238Z,33.13
2018-12-29T15:17:50.992Z,37.63
2018-12-29T15:20:21.170Z,34.70
2018-12-29T15:22:50.867Z,32.10
2018-12-29T15:25:20.571Z,32.33
2018-12-29T15:27:50.652Z,33.47
2018-12-29T15:30:20.357Z,37.27
2018-12-29T15:32:50.127Z,34.43
2018-12-29T15:35:19.864Z,29.63
2018-12-29T15:37:49.646Z,32.50
2018-12-29T15:40:19.527Z,33.73
2018-12-29T15:42:49.374Z,32.47
2018-12-29T15:45:19.243Z,31.57
2018-12-29T15:47:51.898Z,38.20
2018-12-29T15:50:21.771Z,32.87
2018-12-29T15:52:51.939Z,34.57
2018-12-29T15:55:21.627Z,32.17
2018-12-29T15:57:51.367Z,31.17
2018-12-29T16:00:22.712Z,35.67
2018-12-29T16:02:52.670Z,31.47
2018-12-29T16:05:22.390Z,33.40
2018-12-29T16:07:52.433Z,34.80
2018-12-29T16:10:22.079Z,39.50
2018-12-29T16:12:51.974Z,38.50
2018-12-29T16:15:22.190Z,38.83
2018-12-29T16:17:51.910Z,37.10
2018-12-29T16:20:21.730Z,37.20
2018-12-29T16:22:51.763Z,38.93
2018-12-29T16:25:21.561Z,36.73
2018-12-29T16:27:51.309Z,36.73
2018-12-29T16:30:21.227Z,35.37
2018-12-29T16:32:51.258Z,34.87
2018-12-29T16:35:21.117Z,40.47
2018-12-29T16:37:50.970Z,38.07
2018-12-29T16:40:20.770Z,33.97
2018-12-29T16:42:50.533Z,33.40
2018-12-29T16:45:20.563Z,29.90
2018-12-29T16:47:50.352Z,25.13
2018-12-29T16:50:20.088Z,30.27
2018-12-29T16:52:49.891Z,26.03
2018-12-29T16:55:19.651Z,25.37
2018-12-29T16:57:49.403Z,28.03
2018-12-29T17:00:19.257Z,31.03
2018-12-29T17:02:49.159Z,30.63
2018-12-29T17:05:19.015Z,26.70
2018-12-29T17:07:48.810Z,26.67
2018-12-29T17:10:18.831Z,29.13
2018-12-29T17:12:48.710Z,26.20
2018-12-29T17:15:18.527Z,27.77
2018-12-29T17:17:48.259Z,27.23
2018-12-29T17:20:18.009Z,24.27
2018-12-29T17:22:47.752Z,25.43
2018-12-29T17:25:17.658Z,26.10
2018-12-29T17:27:47.542Z,29.43
2018-12-29T17:30:17.511Z,21.37
2018-12-29T17:32:47.689Z,26.70
2018-12-29T17:35:17.541Z,22.47
2018-12-29T17:37:47.317Z,22.10
2018-12-29T17:40:17.069Z,22.93
2018-12-29T17:42:46.908Z,23.63
2018-12-29T17:45:17.260Z,23.37
2018-12-29T17:47:47.276Z,22.50
2018-12-29T17:50:17.019Z,33.67
2018-12-29T17:52:46.802Z,23.13
2018-12-29T17:55:17.069Z,24.83
2018-12-29T17:57:47.140Z,24.30
2018-12-29T18:00:16.921Z,22.43
2018-12-29T18:02:46.735Z,21.50
2018-12-29T18:05:16.477Z,27.97
2018-12-29T18:07:46.303Z,22.17
2018-12-29T18:10:16.328Z,26.17
2018-12-29T18:12:46.167Z,21.97
2018-12-29T18:15:16.033Z,23.40
2018-12-29T18:17:46.229Z,20.30
2018-12-29T18:20:16.084Z,24.60
2018-12-29T18:22:45.890Z,22.50
2018-12-29T18:25:15.710Z,22.03
2018-12-29T18:27:45.844Z,24.20
2018-12-29T18:30:15.611Z,24.17
2018-12-29T18:32:45.439Z,24.20
2018-12-29T18:35:15.203Z,34.50
2018-12-29T18:37:44.913Z,26.33
2018-12-29T18:40:14.742Z,29.23
2018-12-29T18:42:44.872Z,28.63
2018-12-29T18:45:14.658Z,26.33
2018-12-29T18:47:44.561Z,26.13
2018-12-29T18:50:16.103Z,33.87
2018-12-29T18:52:46.043Z,31.60
2018-12-29T18:55:15.883Z,27.20
2018-12-29T18:57:45.834Z,41.33
2018-12-29T19:00:15.653Z,37.53
2018-12-29T19:02:45.468Z,33.13
2018-12-29T19:05:15.423Z,34.03
2018-12-29T19:07:45.496Z,35.00
2018-12-29T19:10:15.447Z,33.23
2018-12-29T19:12:45.537Z,33.20
2018-12-29T19:15:15.391Z,33.73
2018-12-29T19:17:45.607Z,37.30
2018-12-29T19:20:15.691Z,37.40
2018-12-29T19:22:45.355Z,35.47
2018-12-29T19:25:15.272Z,33.63
2018-12-29T19:27:45.453Z,38.40
2018-12-29T19:30:15.232Z,35.57
2018-12-29T19:32:44.989Z,35.27
2018-12-29T19:35:14.706Z,41.20
2018-12-29T19:37:44.791Z,37.40
2018-12-29T19:40:14.558Z,40.03
2018-12-29T19:42:44.713Z,35.67
2018-12-29T19:45:14.532Z,36.87
2018-12-29T19:47:44.491Z,38.97
2018-12-29T19:50:14.594Z,38.33
2018-12-29T19:52:44.442Z,41.80
2018-12-29T19:55:14.435Z,40.27
2018-12-29T19:57:44.331Z,38.60
2018-12-29T20:00:14.245Z,34.77
2018-12-29T20:02:44.825Z,41.57
2018-12-29T20:05:15.162Z,40.87
2018-12-29T20:07:44.983Z,38.27
2018-12-29T20:10:14.800Z,42.50
2018-12-29T20:12:44.981Z,40.23
2018-12-29T20:15:14.956Z,32.73
2018-12-29T20:17:44.908Z,40.23
2018-12-29T20:20:14.866Z,36.77
2018-12-29T20:22:44.778Z,38.03
2018-12-29T20:25:14.544Z,35.33
2018-12-29T20:27:44.685Z,37.00
2018-12-29T20:30:14.361Z,40.67
2018-12-29T20:32:44.274Z,37.30
2018-12-29T20:35:14.177Z,39.07
2018-12-29T20:37:44.149Z,38.37
2018-12-29T20:40:14.224Z,36.93
2018-12-29T20:42:43.959Z,35.57
2018-12-29T20:45:13.845Z,39.83
2018-12-29T20:47:43.723Z,36.57
2018-12-29T20:50:13.591Z,38.53
2018-12-29T20:52:44.236Z,39.03
2018-12-29T20:55:13.987Z,35.87
2018-12-29T20:57:43.936Z,33.73
2018-12-29T21:00:13.811Z,36.50
2018-12-29T21:02:43.719Z,35.43
2018-12-29T21:05:13.737Z,36.50
2018-12-29T21:07:43.650Z,42.33
2018-12-29T21:10:13.434Z,42.20
2018-12-29T21:12:43.267Z,42.47
2018-12-29T21:15:13.162Z,40.83
2018-12-29T21:17:43.306Z,44.47
2018-12-29T21:20:17.335Z,46.47
2018-12-29T21:22:44.804Z,41.83
2018-12-29T21:25:14.561Z,41.07
2018-12-29T21:27:44.838Z,36.47
2018-12-29T21:30:15.031Z,41.37
2018-12-29T21:32:45.440Z,44.97
2018-12-29T21:35:15.179Z,43.67
2018-12-29T21:37:45.097Z,39.07
2018-12-29T21:40:14.850Z,31.43
2018-12-29T21:42:47.664Z,27.90
2018-12-29T21:45:17.399Z,27.90
2018-12-29T21:47:47.123Z,22.53
2018-12-29T21:50:16.755Z,15.70
2018-12-29T21:52:46.565Z,16.80
2018-12-29T21:55:16.222Z,14.97
2018-12-29T21:57:45.986Z,17.33
2018-12-29T22:00:15.782Z,13.47
2018-12-29T22:02:45.571Z,15.80
2018-12-29T22:05:15.383Z,10.27
2018-12-29T22:07:47.785Z,11.57
2018-12-29T22:10:17.583Z,11.37
2018-12-29T22:12:47.273Z,12.90
2018-12-29T22:15:17.002Z,12.07
2018-12-29T22:17:46.702Z,18.43
2018-12-29T22:20:16.458Z,13.40
2018-12-29T22:22:46.102Z,11.80
2018-12-29T22:25:15.774Z,11.67
2018-12-29T22:27:45.491Z,13.07
2018-12-29T22:30:15.174Z,12.20
2018-12-29T22:32:44.883Z,13.97
2018-12-29T22:35:14.518Z,12.10
2018-12-29T22:37:44.155Z,13.27
2018-12-29T22:40:13.813Z,13.37
2018-12-29T22:42:43.460Z,13.97
2018-12-29T22:45:13.202Z,13.73
2018-12-29T22:47:45.986Z,11.43
2018-12-29T22:50:15.706Z,12.60
2018-12-29T22:52:45.377Z,13.13
2018-12-29T22:55:15.033Z,16.30
2018-12-29T22:57:44.657Z,12.30
2018-12-29T23:00:33.847Z,13.33
2018-12-29T23:03:04.160Z,14.73
2018-12-29T23:05:33.857Z,14.33
2018-12-29T23:08:03.554Z,14.13
2018-12-29T23:10:33.206Z,13.63
2018-12-29T23:13:03.199Z,12.83
2018-12-29T23:15:32.869Z,13.67
2018-12-29T23:18:02.572Z,17.63
2018-12-29T23:20:32.594Z,16.43
2018-12-29T23:23:02.238Z,19.20
2018-12-29T23:25:31.941Z,15.80
2018-12-29T23:28:01.688Z,14.03
2018-12-29T23:30:31.494Z,15.00
2018-12-29T23:33:01.223Z,18.63
2018-12-29T23:35:30.968Z,18.73
2018-12-29T23:38:00.907Z,16.57
2018-12-29T23:40:30.659Z,17.57
2018-12-29T23:43:00.392Z,14.57
2018-12-29T23:45:30.432Z,14.70
2018-12-29T23:48:00.079Z,18.17
2018-12-29T23:50:29.810Z,17.63
2018-12-29T23:53:02.631Z,17.70
2018-12-29T23:55:32.585Z,16.33
2018-12-29T23:58:02.613Z,17.43
